createdAt,value
2016-11-22T00:00:20.670Z,0
2016-11-22T00:01:20.703Z,0
2016-11-22T00:02:20.407Z,0
2016-11-22T00:03:20.434Z,0
2016-11-22T00:04:20.772Z,0
2016-11-22T00:05:20.797Z,0
2016-11-22T00:06:20.541Z,0
2016-11-22T00:07:20.542Z,0
2016-11-22T00:08:20.279Z,0
2016-11-22T00:09:20.924Z,0
2016-11-22T00:10:20.352Z,0
2016-11-22T00:11:20.081Z,0
2016-11-22T00:12:20.994Z,0
2016-11-22T00:13:20.710Z,0
2016-11-22T00:14:20.143Z,0
2016-11-22T00:15:20.472Z,0
2016-11-22T00:16:21.114Z,0
2016-11-22T00:17:20.873Z,0
2016-11-22T00:18:20.554Z,0
2016-11-22T00:19:20.899Z,0
2016-11-22T00:20:20.932Z,0
2016-11-22T00:21:21.256Z,0
2016-11-22T00:22:20.981Z,0
2016-11-22T00:23:20.713Z,0
2016-11-22T00:24:20.739Z,0
2016-11-22T00:25:21.375Z,0
2016-11-22T00:26:21.080Z,0
2016-11-22T00:27:20.848Z,0
2016-11-22T00:28:21.137Z,0
2016-11-22T00:29:21.158Z,0
2016-11-22T00:30:20.886Z,0
2016-11-22T00:31:21.520Z,0
2016-11-22T00:32:21.260Z,0
2016-11-22T00:33:21.592Z,0
2016-11-22T00:34:21.021Z,0
2016-11-22T00:35:21.406Z,0
2016-11-22T00:36:21.681Z,0
2016-11-22T00:37:21.691Z,0
2016-11-22T00:38:21.420Z,0
2016-11-22T00:39:21.144Z,0
2016-11-22T00:40:21.790Z,0
2016-11-22T00:41:21.516Z,0
2016-11-22T00:42:21.839Z,0
2016-11-22T00:43:21.583Z,0
2016-11-22T00:44:21.592Z,0
2016-11-22T00:45:21.315Z,0
2016-11-22T00:46:21.942Z,0
2016-11-22T00:47:21.966Z,0
2016-11-22T00:48:21.700Z,0
2016-11-22T00:49:22.043Z,0
2016-11-22T00:50:21.449Z,0
2016-11-22T00:51:21.498Z,0
2016-11-22T00:52:22.126Z,0
2016-11-22T00:53:22.128Z,0
2016-11-22T00:54:21.556Z,0
2016-11-22T00:55:22.201Z,0
2016-11-22T00:56:21.942Z,0
2016-11-22T00:57:21.952Z,0
2016-11-22T00:58:22.291Z,0
2016-11-22T00:59:21.707Z,0
2016-11-22T01:00:22.353Z,0
2016-11-22T01:01:22.389Z,0
2016-11-22T01:02:21.802Z,0
2016-11-22T01:03:22.458Z,0
2016-11-22T01:04:22.171Z,0
2016-11-22T01:05:21.592Z,0
2016-11-22T01:06:22.505Z,0
2016-11-22T01:07:22.233Z,0
2016-11-22T01:08:22.286Z,0
2016-11-22T01:09:22.003Z,0
2016-11-22T01:10:22.612Z,0
2016-11-22T01:11:22.360Z,0
2016-11-22T01:12:22.065Z,0
2016-11-22T01:13:22.102Z,0
2016-11-22T01:14:22.739Z,0
2016-11-22T01:15:22.471Z,0
2016-11-22T01:16:22.496Z,0
2016-11-22T01:17:22.529Z,0
2016-11-22T01:18:22.550Z,0
2016-11-22T01:19:21.993Z,0
2016-11-22T01:20:22.300Z,0
2016-11-22T01:21:22.624Z,0
2016-11-22T01:22:22.049Z,0
2016-11-22T01:23:23.018Z,0
2016-11-22T01:24:22.731Z,0
2016-11-22T01:25:22.460Z,0
2016-11-22T01:26:22.472Z,0
2016-11-22T01:27:22.809Z,0
2016-11-22T01:28:22.862Z,0
2016-11-22T01:29:22.862Z,0
2016-11-22T01:30:23.196Z,0
2016-11-22T01:31:22.319Z,0
2016-11-22T01:32:23.253Z,0
2016-11-22T01:33:22.370Z,0
2016-11-22T01:34:22.695Z,0
2016-11-22T01:35:23.347Z,0
2016-11-22T01:36:23.055Z,0
2016-11-22T01:37:22.784Z,0
2016-11-22T01:38:22.798Z,0
2016-11-22T01:39:23.154Z,0
2016-11-22T01:40:23.504Z,0
2016-11-22T01:41:22.888Z,0
2016-11-22T01:42:22.613Z,0
2016-11-22T01:43:23.253Z,0
2016-11-22T01:44:23.290Z,0
2016-11-22T01:45:23.343Z,0
2016-11-22T01:46:23.336Z,0
2016-11-22T01:47:23.065Z,0
2016-11-22T01:48:23.706Z,0
2016-11-22T01:49:23.759Z,0
2016-11-22T01:50:23.455Z,0
2016-11-22T01:51:23.792Z,0
2016-11-22T01:52:23.824Z,0
2016-11-22T01:53:23.549Z,0
2016-11-22T01:54:23.898Z,0
2016-11-22T01:55:23.594Z,0
2016-11-22T01:56:23.931Z,0
2016-11-22T01:57:23.960Z,0
2016-11-22T01:58:23.672Z,0
2016-11-22T01:59:23.388Z,0
2016-11-22T02:00:24.041Z,0
2016-11-22T02:01:23.783Z,0
2016-11-22T02:02:23.782Z,0
2016-11-22T02:03:23.515Z,0
2016-11-22T02:04:23.548Z,0
2016-11-22T02:05:23.569Z,0
2016-11-22T02:06:23.586Z,0
2016-11-22T02:07:23.914Z,0
2016-11-22T02:08:24.263Z,0
2016-11-22T02:09:24.291Z,0
2016-11-22T02:10:23.428Z,0
2016-11-22T02:11:24.349Z,0
2016-11-22T02:12:24.377Z,0
2016-11-22T02:13:24.402Z,0
2016-11-22T02:14:24.114Z,0
2016-11-22T02:15:23.883Z,0
2016-11-22T02:16:23.576Z,0
2016-11-22T02:17:24.188Z,0
2016-11-22T02:18:23.620Z,0
2016-11-22T02:19:24.586Z,0
2016-11-22T02:20:24.291Z,0
2016-11-22T02:21:24.305Z,0
2016-11-22T02:22:24.054Z,0
2016-11-22T02:23:23.768Z,0
2016-11-22T02:24:24.394Z,0
2016-11-22T02:25:24.437Z,0
2016-11-22T02:26:24.442Z,0
2016-11-22T02:27:24.194Z,0
2016-11-22T02:28:24.808Z,0
2016-11-22T02:29:24.531Z,0
2016-11-22T02:30:24.248Z,0
2016-11-22T02:31:24.592Z,0
2016-11-22T02:32:24.925Z,0
2016-11-22T02:33:24.042Z,0
2016-11-22T02:34:24.374Z,0
2016-11-22T02:35:24.712Z,0
2016-11-22T02:36:24.135Z,0
2016-11-22T02:37:24.468Z,0
2016-11-22T02:38:25.088Z,0
2016-11-22T02:39:24.825Z,0
2016-11-22T02:40:24.550Z,0
2016-11-22T02:41:24.563Z,0
2016-11-22T02:42:24.291Z,0
2016-11-22T02:43:25.240Z,0
2016-11-22T02:44:24.947Z,0
2016-11-22T02:45:24.993Z,0
2016-11-22T02:46:25.305Z,0
2016-11-22T02:47:25.054Z,0
2016-11-22T02:48:25.063Z,0
2016-11-22T02:49:25.392Z,0
2016-11-22T02:50:25.436Z,0
2016-11-22T02:51:25.165Z,0
2016-11-22T02:57:18.982Z,0
2016-11-22T02:57:35.173Z,0
2016-11-22T02:58:34.890Z,0
2016-11-22T02:59:34.923Z,0
2016-11-22T03:00:34.684Z,0
2016-11-22T03:01:35.276Z,0
2016-11-22T03:02:35.317Z,0
2016-11-22T03:03:35.037Z,0
2016-11-22T03:04:35.071Z,0
2016-11-22T03:05:35.415Z,0
2016-11-22T03:06:35.436Z,0
2016-11-22T03:07:35.154Z,0
2016-11-22T03:08:34.565Z,0
2016-11-22T03:09:34.906Z,0
2016-11-22T03:10:35.278Z,0
2016-11-22T03:11:34.968Z,0
2016-11-22T03:12:35.017Z,0
2016-11-22T03:13:35.005Z,0
2016-11-22T03:14:35.662Z,0
2016-11-22T03:15:35.386Z,0
2016-11-22T03:16:35.719Z,0
2016-11-22T03:17:35.428Z,0
2016-11-22T03:18:35.144Z,0
2016-11-22T03:19:34.885Z,0
2016-11-22T03:20:35.797Z,0
2016-11-22T03:21:35.546Z,0
2016-11-22T03:22:35.571Z,0
2016-11-22T03:23:35.600Z,0
2016-11-22T03:24:35.608Z,0
2016-11-22T03:25:35.342Z,0
2016-11-22T03:26:35.362Z,0
2016-11-22T03:27:35.710Z,0
2016-11-22T03:28:35.743Z,0
2016-11-22T03:29:36.069Z,0
2016-11-22T03:30:35.800Z,0
2016-11-22T03:31:35.821Z,0
2016-11-22T03:32:35.537Z,0
2016-11-22T03:33:35.266Z,0
2016-11-22T03:34:35.286Z,0
2016-11-22T03:35:36.223Z,0
2016-11-22T03:36:36.256Z,0
2016-11-22T03:37:35.681Z,0
2016-11-22T03:38:36.334Z,0
2016-11-22T03:39:36.051Z,0
2016-11-22T03:40:36.056Z,0
2016-11-22T03:41:36.392Z,0
2016-11-22T03:42:35.828Z,0
2016-11-22T03:43:35.850Z,0
2016-11-22T03:44:36.466Z,0
2016-11-22T03:45:35.903Z,0
2016-11-22T03:46:35.943Z,0
2016-11-22T03:47:36.270Z,0
2016-11-22T03:48:35.681Z,0
2016-11-22T03:49:36.326Z,0
2016-11-22T03:50:36.043Z,0
2016-11-22T03:51:36.076Z,0
2016-11-22T03:52:35.796Z,0
2016-11-22T03:53:36.425Z,0
2016-11-22T03:54:36.462Z,0
2016-11-22T03:55:36.491Z,0
2016-11-22T03:56:36.212Z,0
2016-11-22T03:57:36.540Z,0
2016-11-22T03:58:36.565Z,0
2016-11-22T03:59:36.606Z,0
2016-11-22T04:00:36.319Z,0
2016-11-22T04:01:36.376Z,0
2016-11-22T04:02:36.372Z,0
2016-11-22T04:03:36.712Z,0
2016-11-22T04:04:36.126Z,0
2016-11-22T04:05:36.762Z,0
2016-11-22T04:06:36.483Z,0
2016-11-22T04:07:36.231Z,0
2016-11-22T04:08:36.536Z,0
2016-11-22T04:09:36.585Z,0
2016-11-22T04:10:36.934Z,0
2016-11-22T04:11:36.934Z,0
2016-11-22T04:12:36.035Z,0
2016-11-22T04:13:37.336Z,0
2016-11-22T04:14:36.701Z,0
2016-11-22T04:15:36.460Z,0
2016-11-22T04:16:37.094Z,0
2016-11-22T04:17:37.399Z,0
2016-11-22T04:18:37.127Z,0
2016-11-22T04:19:36.844Z,0
2016-11-22T04:20:37.180Z,0
2016-11-22T04:21:36.901Z,0
2016-11-22T04:22:37.242Z,0
2016-11-22T04:23:36.946Z,0
2016-11-22T04:24:37.299Z,0
2016-11-22T04:25:37.324Z,0
2016-11-22T04:26:37.041Z,0
2016-11-22T04:27:37.073Z,0
2016-11-22T04:28:37.104Z,0
2016-11-22T04:29:37.131Z,0
2016-11-22T04:30:36.847Z,0
2016-11-22T04:31:37.485Z,0
2016-11-22T04:32:37.209Z,0
2016-11-22T04:33:37.542Z,0
2016-11-22T04:34:37.279Z,0
2016-11-22T04:35:37.292Z,0
2016-11-22T04:36:37.627Z,0
2016-11-22T04:37:37.345Z,0
2016-11-22T04:38:37.991Z,0
2016-11-22T04:39:37.712Z,0
2016-11-22T04:40:38.056Z,0
2016-11-22T04:41:37.462Z,0
2016-11-22T04:42:37.785Z,0
2016-11-22T04:43:37.819Z,0
2016-11-22T04:44:37.848Z,0
2016-11-22T04:45:37.881Z,0
2016-11-22T04:46:37.597Z,0
2016-11-22T04:47:37.614Z,0
2016-11-22T04:48:38.263Z,0
2016-11-22T04:49:38.288Z,0
2016-11-22T04:50:38.320Z,0
2016-11-22T04:51:38.045Z,0
2016-11-22T04:52:38.370Z,0
2016-11-22T04:53:37.791Z,0
2016-11-22T04:54:37.508Z,0
2016-11-22T04:55:38.445Z,0
2016-11-22T04:56:38.180Z,0
2016-11-22T04:57:37.929Z,0
2016-11-22T04:58:37.927Z,0
2016-11-22T04:59:37.960Z,0
2016-11-22T05:00:37.989Z,0
2016-11-22T05:01:38.317Z,0
2016-11-22T05:02:37.730Z,0
2016-11-22T05:03:38.063Z,0
2016-11-22T05:04:38.403Z,0
2016-11-22T05:05:38.421Z,0
2016-11-22T05:06:38.155Z,0
2016-11-22T05:07:38.771Z,0
2016-11-22T05:08:38.551Z,0
2016-11-22T05:09:38.852Z,0
2016-11-22T05:10:38.866Z,0
2016-11-22T05:11:38.295Z,0
2016-11-22T05:12:38.635Z,0
2016-11-22T05:13:38.356Z,0
2016-11-22T05:14:38.372Z,0
2016-11-22T05:15:38.997Z,0
2016-11-22T05:16:38.734Z,0
2016-11-22T05:17:39.071Z,0
2016-11-22T05:18:38.783Z,0
2016-11-22T05:19:39.121Z,0
2016-11-22T05:20:39.147Z,0
2016-11-22T05:21:38.595Z,0
2016-11-22T05:22:38.596Z,0
2016-11-22T05:23:39.264Z,0
2016-11-22T05:24:38.949Z,0
2016-11-22T05:25:38.982Z,0
2016-11-22T05:26:39.331Z,0
2016-11-22T05:27:39.336Z,0
2016-11-22T05:28:38.763Z,0
2016-11-22T05:29:38.481Z,0
2016-11-22T05:30:39.118Z,0
2016-11-22T05:31:39.162Z,0
2016-11-22T05:32:38.875Z,0
2016-11-22T05:33:38.904Z,0
2016-11-22T05:34:39.537Z,0
2016-11-22T05:35:38.954Z,0
2016-11-22T05:36:39.639Z,0
2016-11-22T05:37:38.700Z,0
2016-11-22T05:38:39.048Z,0
2016-11-22T05:39:39.685Z,0
2016-11-22T05:40:39.385Z,0
2016-11-22T05:41:39.724Z,0
2016-11-22T05:42:39.449Z,0
2016-11-22T05:43:39.781Z,0
2016-11-22T05:44:39.850Z,0
2016-11-22T05:45:39.526Z,0
2016-11-22T05:46:39.575Z,0
2016-11-22T05:47:39.920Z,0
2016-11-22T05:48:39.005Z,0
2016-11-22T05:49:39.373Z,0
2016-11-22T05:50:39.675Z,0
2016-11-22T05:51:39.711Z,0
2016-11-22T05:52:39.125Z,0
2016-11-22T05:53:39.769Z,0
2016-11-22T05:54:40.086Z,0
2016-11-22T05:55:40.134Z,0
2016-11-22T05:56:39.243Z,0
2016-11-22T05:57:39.268Z,0
2016-11-22T05:58:39.905Z,0
2016-11-22T05:59:40.242Z,0
2016-11-22T06:00:39.655Z,0
2016-11-22T06:01:40.276Z,0
2016-11-22T06:02:40.008Z,0
2016-11-22T06:03:39.741Z,0
2016-11-22T06:04:39.754Z,0
2016-11-22T06:05:40.387Z,0
2016-11-22T06:06:40.128Z,0
2016-11-22T06:07:40.164Z,0
2016-11-22T06:08:39.852Z,0
2016-11-22T06:09:40.242Z,0
2016-11-22T06:10:39.915Z,0
2016-11-22T06:11:39.968Z,0
2016-11-22T06:12:40.296Z,0
2016-11-22T06:13:40.630Z,0
2016-11-22T06:14:40.338Z,0
2016-11-22T06:15:39.763Z,0
2016-11-22T06:16:40.412Z,0
2016-11-22T06:17:39.824Z,0
2016-11-22T06:18:40.169Z,0
2016-11-22T06:19:40.526Z,0
2016-11-22T06:20:40.243Z,0
2016-11-22T06:21:40.247Z,0
2016-11-22T06:22:40.592Z,0
2016-11-22T06:23:39.996Z,0
2016-11-22T06:24:40.933Z,0
2016-11-22T06:25:40.346Z,0
2016-11-22T06:26:40.980Z,0
2016-11-22T06:27:40.707Z,0
2016-11-22T06:28:41.048Z,0
2016-11-22T06:29:40.453Z,0
2016-11-22T06:30:41.086Z,0
2016-11-22T06:31:41.138Z,0
2016-11-22T06:32:40.543Z,0
2016-11-22T06:33:40.574Z,0
2016-11-22T06:34:40.301Z,0
2016-11-22T06:35:41.229Z,0
2016-11-22T06:36:40.962Z,0
2016-11-22T06:37:40.091Z,0
2016-11-22T06:38:41.012Z,0
2016-11-22T06:39:41.044Z,0
2016-11-22T06:40:41.101Z,0
2016-11-22T06:41:40.490Z,0
2016-11-22T06:42:40.526Z,0
2016-11-22T06:43:41.162Z,0
2016-11-22T06:44:41.184Z,0
2016-11-22T06:45:41.213Z,0
2016-11-22T06:46:40.877Z,0
2016-11-22T06:47:41.575Z,0
2016-11-22T06:48:41.303Z,0
2016-11-22T06:49:41.319Z,0
2016-11-22T06:50:41.040Z,0
2016-11-22T06:51:41.674Z,0
2016-11-22T06:52:41.410Z,0
2016-11-22T06:53:41.740Z,0
2016-11-22T06:54:41.803Z,0
2016-11-22T06:55:41.797Z,0
2016-11-22T06:56:41.208Z,0
2016-11-22T06:57:41.846Z,0
2016-11-22T06:58:41.567Z,0
2016-11-22T06:59:41.980Z,0
2016-11-22T07:00:41.945Z,0
2016-11-22T07:01:41.668Z,0
2016-11-22T07:02:41.085Z,0
2016-11-22T07:03:41.411Z,0
2016-11-22T07:04:41.751Z,0
2016-11-22T07:05:41.500Z,0
2016-11-22T07:06:42.124Z,0
2016-11-22T07:07:41.821Z,0
2016-11-22T07:08:41.561Z,0
2016-11-22T07:09:41.887Z,0
2016-11-22T07:10:41.615Z,0
2016-11-22T07:11:41.944Z,0
2016-11-22T07:12:42.272Z,0
2016-11-22T07:13:41.989Z,0
2016-11-22T07:14:41.722Z,0
2016-11-22T07:15:41.770Z,0
2016-11-22T07:16:42.103Z,0
2016-11-22T07:17:42.112Z,0
2016-11-22T07:18:42.133Z,0
2016-11-22T07:19:42.483Z,0
2016-11-22T07:20:42.206Z,0
2016-11-22T07:21:41.619Z,0
2016-11-22T07:22:42.251Z,0
2016-11-22T07:23:41.981Z,0
2016-11-22T07:24:41.713Z,0
2016-11-22T07:25:42.381Z,0
2016-11-22T07:26:42.367Z,0
2016-11-22T07:27:42.090Z,0
2016-11-22T07:28:42.439Z,0
2016-11-22T07:29:42.764Z,0
2016-11-22T07:30:42.217Z,0
2016-11-22T07:31:42.817Z,0
2016-11-22T07:32:42.530Z,0
2016-11-22T07:33:42.875Z,0
2016-11-22T07:34:42.299Z,0
2016-11-22T07:35:42.612Z,0
2016-11-22T07:36:42.645Z,0
2016-11-22T07:37:42.377Z,0
2016-11-22T07:38:42.706Z,0
2016-11-22T07:39:42.439Z,0
2016-11-22T07:40:42.784Z,0
2016-11-22T07:41:42.781Z,0
2016-11-22T07:42:42.821Z,0
2016-11-22T07:43:42.221Z,0
2016-11-22T07:44:42.878Z,0
2016-11-22T07:45:42.603Z,0
2016-11-22T07:46:42.616Z,0
2016-11-22T07:47:42.352Z,0
2016-11-22T07:48:42.414Z,0
2016-11-22T07:49:42.726Z,0
2016-11-22T07:50:43.354Z,0
2016-11-22T07:51:43.083Z,0
2016-11-22T07:52:42.784Z,0
2016-11-22T07:53:43.437Z,0
2016-11-22T07:54:43.158Z,0
2016-11-22T07:55:43.487Z,0
2016-11-22T07:56:43.527Z,0
2016-11-22T07:57:43.279Z,0
2016-11-22T07:58:43.579Z,0
2016-11-22T07:59:43.003Z,0
2016-11-22T08:00:43.334Z,0
2016-11-22T08:01:43.357Z,0
2016-11-22T08:02:43.687Z,0
2016-11-22T08:03:43.731Z,0
2016-11-22T08:04:43.156Z,0
2016-11-22T08:05:43.495Z,0
2016-11-22T08:06:43.190Z,0
2016-11-22T08:07:43.233Z,0
2016-11-22T08:08:43.554Z,0
2016-11-22T08:09:43.591Z,0
2016-11-22T08:10:43.920Z,0
2016-11-22T08:11:43.642Z,0
2016-11-22T08:12:43.061Z,0
2016-11-22T08:13:43.379Z,0
2016-11-22T08:14:43.711Z,0
2016-11-22T08:15:44.056Z,0
2016-11-22T08:16:43.809Z,0
2016-11-22T08:17:43.504Z,0
2016-11-22T08:18:43.221Z,0
2016-11-22T08:19:44.166Z,0
2016-11-22T08:20:43.894Z,0
2016-11-22T08:21:43.923Z,0
2016-11-22T08:22:43.944Z,0
2016-11-22T08:23:44.272Z,0
2016-11-22T08:24:44.026Z,0
2016-11-22T08:25:43.426Z,0
2016-11-22T08:26:44.378Z,0
2016-11-22T08:27:44.076Z,0
2016-11-22T08:28:43.209Z,0
2016-11-22T08:29:44.125Z,0
2016-11-22T08:30:43.874Z,0
2016-11-22T08:31:44.526Z,0
2016-11-22T08:32:44.230Z,5
2016-11-22T08:33:44.239Z,5
2016-11-22T08:34:44.589Z,5
2016-11-22T08:35:44.325Z,5
2016-11-22T08:36:44.341Z,5
2016-11-22T08:37:44.363Z,5
2016-11-22T08:38:44.096Z,5
2016-11-22T08:39:44.120Z,5
2016-11-22T08:40:44.444Z,5
2016-11-22T08:41:44.496Z,10
2016-11-22T08:42:43.894Z,10
2016-11-22T08:43:44.223Z,10
2016-11-22T08:44:44.590Z,10
2016-11-22T08:45:44.871Z,10
2016-11-22T08:46:44.640Z,10
2016-11-22T08:47:44.650Z,5
2016-11-22T08:48:44.968Z,5
2016-11-22T08:49:44.714Z,5
2016-11-22T08:50:44.728Z,5
2016-11-22T08:51:44.760Z,5
2016-11-22T08:52:45.553Z,5
2016-11-22T08:53:44.514Z,5
2016-11-22T08:54:44.838Z,5
2016-11-22T08:55:44.283Z,5
2016-11-22T08:56:45.187Z,10
2016-11-22T08:57:44.611Z,10
2016-11-22T08:58:45.258Z,10
2016-11-22T08:59:44.370Z,10
2016-11-22T09:00:44.710Z,10
2016-11-22T09:01:45.020Z,10
2016-11-22T09:02:45.064Z,10
2016-11-22T09:03:45.413Z,10
2016-11-22T09:04:45.154Z,10
2016-11-22T09:05:45.150Z,10
2016-11-22T09:06:45.182Z,10
2016-11-22T09:07:45.199Z,10
2016-11-22T09:08:45.232Z,10
2016-11-22T09:09:44.973Z,15
2016-11-22T09:10:44.986Z,15
2016-11-22T09:11:44.705Z,10
2016-11-22T09:12:45.347Z,10
2016-11-22T09:13:45.443Z,10
2016-11-22T09:14:45.102Z,10
2016-11-22T09:15:45.425Z,15
2016-11-22T09:16:45.177Z,15
2016-11-22T09:17:45.486Z,15
2016-11-22T09:18:45.226Z,15
2016-11-22T09:19:45.536Z,10
2016-11-22T09:20:45.560Z,10
2016-11-22T09:21:45.891Z,10
2016-11-22T09:22:45.314Z,10
2016-11-22T09:23:45.348Z,10
2016-11-22T09:24:45.687Z,15
2016-11-22T09:25:46.016Z,15
2016-11-22T09:26:45.745Z,20
2016-11-22T09:27:45.457Z,20
2016-11-22T09:28:46.106Z,20
2016-11-22T09:29:46.135Z,15
2016-11-22T09:30:45.843Z,15
2016-11-22T09:31:45.876Z,15
2016-11-22T09:32:45.891Z,15
2016-11-22T09:33:45.978Z,15
2016-11-22T09:34:45.988Z,15
2016-11-22T09:35:45.371Z,15
2016-11-22T09:36:46.013Z,15
2016-11-22T09:37:45.740Z,15
2016-11-22T09:38:46.066Z,15
2016-11-22T09:39:46.102Z,15
2016-11-22T09:40:46.128Z,20
2016-11-22T09:41:45.884Z,20
2016-11-22T09:42:45.872Z,20
2016-11-22T09:43:46.210Z,20
2016-11-22T09:44:45.933Z,20
2016-11-22T09:45:45.962Z,20
2016-11-22T09:46:45.979Z,25
2016-11-22T09:47:46.616Z,25
2016-11-22T09:48:46.353Z,25
2016-11-22T09:49:46.394Z,25
2016-11-22T09:50:46.087Z,20
2016-11-22T09:51:46.434Z,20
2016-11-22T09:52:46.771Z,25
2016-11-22T09:53:46.197Z,25
2016-11-22T09:54:46.213Z,25
2016-11-22T09:55:46.560Z,25
2016-11-22T09:56:46.258Z,25
2016-11-22T09:57:46.012Z,25
2016-11-22T09:58:46.324Z,20
2016-11-22T09:59:46.665Z,20
2016-11-22T10:00:46.682Z,20
2016-11-22T10:01:46.742Z,15
2016-11-22T10:02:46.139Z,15
2016-11-22T10:03:46.772Z,15
2016-11-22T10:04:47.133Z,15
2016-11-22T10:05:46.512Z,15
2016-11-22T10:06:46.521Z,15
2016-11-22T10:07:46.871Z,15
2016-11-22T10:08:46.920Z,15
2016-11-22T10:09:46.328Z,15
2016-11-22T10:10:46.345Z,15
2016-11-22T10:11:47.014Z,15
2016-11-22T10:12:46.722Z,15
2016-11-22T10:13:47.047Z,15
2016-11-22T10:14:47.362Z,10
2016-11-22T10:15:47.089Z,10
2016-11-22T10:16:46.533Z,10
2016-11-22T10:17:46.575Z,10
2016-11-22T10:18:46.879Z,10
2016-11-22T10:19:46.915Z,10
2016-11-22T10:20:46.919Z,10
2016-11-22T10:21:46.661Z,10
2016-11-22T10:22:47.294Z,10
2016-11-22T10:23:47.359Z,10
2016-11-22T10:24:47.046Z,10
2016-11-22T10:25:47.108Z,10
2016-11-22T10:26:47.709Z,10
2016-11-22T10:27:47.429Z,10
2016-11-22T10:28:47.754Z,10
2016-11-22T10:29:47.491Z,10
2016-11-22T10:30:47.819Z,10
2016-11-22T10:31:47.840Z,10
2016-11-22T10:32:47.130Z,10
2016-11-22T10:33:47.005Z,5
2016-11-22T10:34:47.950Z,10
2016-11-22T10:35:47.963Z,10
2016-11-22T10:36:47.384Z,10
2016-11-22T10:37:47.720Z,5
2016-11-22T10:38:47.745Z,5
2016-11-22T10:39:47.774Z,5
2016-11-22T10:40:47.190Z,5
2016-11-22T10:41:47.827Z,5
2016-11-22T10:42:47.848Z,5
2016-11-22T10:43:48.208Z,5
2016-11-22T10:44:47.302Z,5
2016-11-22T10:45:48.244Z,10
2016-11-22T10:46:48.284Z,10
2016-11-22T10:47:47.684Z,10
2016-11-22T10:48:47.448Z,10
2016-11-22T10:49:47.753Z,10
2016-11-22T10:50:48.378Z,10
2016-11-22T10:51:48.124Z,10
2016-11-22T10:52:47.527Z,15
2016-11-22T10:53:48.164Z,15
2016-11-22T10:54:47.874Z,20
2016-11-22T10:55:48.223Z,20
2016-11-22T10:56:48.235Z,20
2016-11-22T10:57:48.572Z,20
2016-11-22T10:58:48.601Z,15
2016-11-22T10:59:48.345Z,15
2016-11-22T11:00:48.349Z,15
2016-11-22T11:01:48.682Z,15
2016-11-22T11:02:48.411Z,10
2016-11-22T11:03:48.448Z,10
2016-11-22T11:04:48.162Z,10
2016-11-22T11:05:48.799Z,10
2016-11-22T11:06:48.522Z,10
2016-11-22T11:07:48.259Z,10
2016-11-22T11:08:48.339Z,10
2016-11-22T11:09:48.607Z,10
2016-11-22T11:10:48.645Z,10
2016-11-22T11:11:48.675Z,10
2016-11-22T11:12:48.387Z,10
2016-11-22T11:13:48.419Z,15
2016-11-22T11:14:48.763Z,15
2016-11-22T11:15:47.865Z,15
2016-11-22T11:16:48.498Z,15
2016-11-22T11:17:49.136Z,15
2016-11-22T11:18:48.255Z,15
2016-11-22T11:19:48.284Z,20
2016-11-22T11:20:48.648Z,20
2016-11-22T11:21:49.265Z,15
2016-11-22T11:22:48.967Z,15
2016-11-22T11:23:48.999Z,10
2016-11-22T11:24:48.715Z,10
2016-11-22T11:25:49.359Z,15
2016-11-22T11:26:49.092Z,15
2016-11-22T11:27:49.110Z,15
2016-11-22T11:28:49.142Z,15
2016-11-22T11:29:49.475Z,15
2016-11-22T11:30:48.882Z,15
2016-11-22T11:31:49.518Z,15
2016-11-22T11:32:49.550Z,15
2016-11-22T11:33:49.578Z,15
2016-11-22T11:34:49.286Z,15
2016-11-22T11:35:49.023Z,15
2016-11-22T11:36:48.744Z,15
2016-11-22T11:37:49.092Z,15
2016-11-22T11:38:49.411Z,15
2016-11-22T11:39:49.138Z,15
2016-11-22T11:40:49.775Z,20
2016-11-22T11:41:49.811Z,15
2016-11-22T11:42:48.937Z,20
2016-11-22T11:43:49.845Z,20
2016-11-22T11:44:49.873Z,25
2016-11-22T11:45:49.651Z,30
2016-11-22T11:46:49.339Z,30
2016-11-22T11:47:49.989Z,35
2016-11-22T11:48:50.001Z,35
2016-11-22T11:49:50.026Z,35
2016-11-22T11:50:49.134Z,35
2016-11-22T11:51:49.787Z,40
2016-11-22T11:52:50.112Z,50
2016-11-22T11:53:49.530Z,50
2016-11-22T11:54:49.865Z,50
2016-11-22T11:55:49.893Z,45
2016-11-22T11:56:50.227Z,40
2016-11-22T11:57:49.635Z,35
2016-11-22T11:58:49.676Z,35
2016-11-22T11:59:49.709Z,35
2016-11-22T12:00:49.713Z,35
2016-11-22T12:01:50.062Z,30
2016-11-22T12:02:50.078Z,30
2016-11-22T12:03:49.535Z,30
2016-11-22T12:04:50.136Z,30
2016-11-22T12:05:50.457Z,30
2016-11-22T12:06:49.886Z,30
2016-11-22T12:07:50.538Z,35
2016-11-22T12:08:50.559Z,35
2016-11-22T12:09:50.280Z,35
2016-11-22T12:10:50.313Z,30
2016-11-22T12:11:50.653Z,35
2016-11-22T12:12:50.074Z,30
2016-11-22T12:13:50.407Z,40
2016-11-22T12:14:50.115Z,45
2016-11-22T12:15:50.753Z,45
2016-11-22T12:16:50.486Z,45
2016-11-22T12:17:50.505Z,50
2016-11-22T12:18:50.531Z,45
2016-11-22T12:19:50.863Z,40
2016-11-22T12:20:50.604Z,40
2016-11-22T12:21:50.912Z,40
2016-11-22T12:22:50.644Z,35
2016-11-22T12:23:50.991Z,35
2016-11-22T12:24:51.035Z,35
2016-11-22T12:25:50.431Z,35
2016-11-22T12:26:50.460Z,35
2016-11-22T12:27:51.100Z,35
2016-11-22T12:28:50.518Z,30
2016-11-22T12:29:51.130Z,30
2016-11-22T12:30:50.575Z,30
2016-11-22T12:31:50.920Z,30
2016-11-22T12:32:50.928Z,30
2016-11-22T12:33:50.961Z,30
2016-11-22T12:34:50.669Z,25
2016-11-22T12:35:51.010Z,25
2016-11-22T12:36:51.350Z,30
2016-11-22T12:37:50.759Z,30
2016-11-22T12:38:51.101Z,30
2016-11-22T12:39:51.138Z,35
2016-11-22T12:40:50.857Z,30
2016-11-22T12:41:50.589Z,30
2016-11-22T12:42:51.514Z,30
2016-11-22T12:43:50.948Z,30
2016-11-22T12:44:51.588Z,30
2016-11-22T12:45:50.993Z,30
2016-11-22T12:46:51.352Z,20
2016-11-22T12:47:51.050Z,20
2016-11-22T12:48:51.387Z,20
2016-11-22T12:49:51.414Z,20
2016-11-22T12:50:51.734Z,20
2016-11-22T12:51:51.782Z,20
2016-11-22T12:52:51.176Z,15
2016-11-22T12:53:51.548Z,15
2016-11-22T12:54:51.849Z,15
2016-11-22T12:55:51.885Z,15
2016-11-22T12:56:51.014Z,15
2016-11-22T12:57:51.630Z,15
2016-11-22T12:58:51.366Z,10
2016-11-22T12:59:52.004Z,10
2016-11-22T13:00:51.729Z,10
2016-11-22T13:01:51.433Z,10
2016-11-22T13:02:52.077Z,10
2016-11-22T13:03:52.113Z,10
2016-11-22T13:04:52.043Z,10
2016-11-22T13:05:51.839Z,10
2016-11-22T13:06:51.895Z,10
2016-11-22T13:07:52.220Z,5
2016-11-22T13:08:51.328Z,5
2016-11-22T13:09:51.985Z,5
2016-11-22T13:10:52.381Z,5
2016-11-22T13:11:52.042Z,5
2016-11-22T13:12:51.459Z,5
2016-11-22T13:13:52.391Z,5
2016-11-22T13:14:52.432Z,5
2016-11-22T13:15:52.157Z,5
2016-11-22T13:16:52.464Z,5
2016-11-22T13:17:52.205Z,5
2016-11-22T13:18:52.541Z,10
2016-11-22T13:19:52.254Z,10
2016-11-22T13:20:52.283Z,10
2016-11-22T13:21:51.707Z,10
2016-11-22T13:22:52.340Z,10
2016-11-22T13:23:52.381Z,15
2016-11-22T13:24:52.688Z,15
2016-11-22T13:25:52.725Z,20
2016-11-22T13:26:52.458Z,15
2016-11-22T13:27:52.482Z,15
2016-11-22T13:28:52.503Z,15
2016-11-22T13:29:52.843Z,15
2016-11-22T13:30:52.570Z,15
2016-11-22T13:31:52.288Z,10
2016-11-22T13:32:52.618Z,10
2016-11-22T13:33:52.346Z,10
2016-11-22T13:34:52.691Z,5
2016-11-22T13:35:52.720Z,5
2016-11-22T13:36:52.732Z,5
2016-11-22T13:37:52.756Z,5
2016-11-22T13:38:53.101Z,5
2016-11-22T13:39:52.856Z,5
2016-11-22T13:40:53.142Z,5
2016-11-22T13:41:52.883Z,5
2016-11-22T13:42:52.899Z,5
2016-11-22T13:43:53.224Z,5
2016-11-22T13:44:52.653Z,5
2016-11-22T13:45:52.986Z,5
2016-11-22T13:46:53.023Z,10
2016-11-22T13:47:53.047Z,10
2016-11-22T13:48:53.064Z,10
2016-11-22T13:49:53.408Z,10
2016-11-22T13:50:53.113Z,10
2016-11-22T13:51:53.162Z,5
2016-11-22T13:52:53.166Z,5
2016-11-22T13:53:52.607Z,5
2016-11-22T13:54:52.936Z,5
2016-11-22T13:55:53.597Z,5
2016-11-22T13:56:53.289Z,5
2016-11-22T13:57:53.322Z,5
2016-11-22T13:58:53.355Z,5
2016-11-22T13:59:53.380Z,5
2016-11-22T14:00:53.394Z,5
2016-11-22T14:01:53.433Z,5
2016-11-22T14:02:53.774Z,5
2016-11-22T14:03:52.873Z,5
2016-11-22T14:04:53.819Z,5
2016-11-22T14:05:53.860Z,5
2016-11-22T14:06:53.573Z,5
2016-11-22T14:07:53.913Z,5
2016-11-22T14:08:53.622Z,5
2016-11-22T14:09:53.359Z,5
2016-11-22T14:10:53.380Z,10
2016-11-22T14:11:53.700Z,10
2016-11-22T14:12:53.447Z,10
2016-11-22T14:13:53.814Z,10
2016-11-22T14:14:53.491Z,5
2016-11-22T14:15:53.219Z,5
2016-11-22T14:16:54.176Z,5
2016-11-22T14:17:54.201Z,5
2016-11-22T14:18:53.909Z,5
2016-11-22T14:19:54.230Z,5
2016-11-22T14:20:53.665Z,5
2016-11-22T14:21:54.312Z,5
2016-11-22T14:22:53.712Z,5
2016-11-22T14:23:54.360Z,0
2016-11-22T14:24:54.078Z,0
2016-11-22T14:25:54.411Z,0
2016-11-22T14:26:54.135Z,0
2016-11-22T14:27:54.452Z,0
2016-11-22T14:28:54.497Z,0
2016-11-22T14:29:54.214Z,0
2016-11-22T14:30:53.630Z,0
2016-11-22T14:31:54.263Z,0
2016-11-22T14:32:54.291Z,0
2016-11-22T14:33:54.324Z,0
2016-11-22T14:34:54.650Z,0
2016-11-22T14:35:54.398Z,0
2016-11-22T14:36:54.422Z,0
2016-11-22T14:37:54.740Z,0
2016-11-22T14:38:54.472Z,0
2016-11-22T14:39:54.813Z,0
2016-11-22T14:40:54.825Z,0
2016-11-22T14:41:54.883Z,0